Maple Galaxy — 3FXO8 — position and weather

sailwx.info

Track history (hours):
 
Tides and Currents Weather Stations Pressure Air Temp Water Temp Dewpoint Dewpoint Depression Visibility Wind Speed Wind Dir Waves Ship Positions

Maple Galaxy

Last reported at 2018-Feb-28 21:42 UTC. Time now 2018-Jun-20 21:11 UTC.
Position N 01°18' E 103°20'.
Warning: this ship's position is months out of date.

Length 292 m; draft 11 m.

Type: Cargo ship. MMSI: 374498000.

Date/timePositionNaut miles runAvg speedWind from/ knotsBaromVisibWave heightAir tempDewpointWater temp
2018-Feb-28 21:42N 01°18' E 103°20'315.0
2018-Feb-28 21:29N 01°16' E 103°23'714.5
2018-Feb-28 20:59N 01°14' E 103°30'714.2
2018-Feb-28 20:30N 01°12' E 103°36'713.5
2018-Feb-28 19:59N 01°09' E 103°43'612.7
2018-Feb-28 19:30N 01°11' E 103°49'713.5
2018-Feb-28 19:00N 01°14' E 103°54'611.9
2018-Feb-28 18:30N 01°16' E 104°00'510.0
2018-Feb-28 18:00N 01°17' E 104°05'1 0.4
2018-Feb-28 15:17N 01°18' E 104°05'0 0.0
2018-Feb-28 14:47N 01°18' E 104°05'0 0.0
2018-Feb-28 12:02N 01°18' E 104°05'0 0.6
2018-Feb-28 11:56N 01°18' E 104°05'0 0.0
2018-Feb-28 11:20N 01°18' E 104°05'0 0.2
2018-Feb-28 08:44N 01°18' E 104°05'0 0.0
2018-Feb-28 08:29N 01°18' E 104°05'0 0.0
2018-Feb-28 07:59N 01°18' E 104°05'0 0.0
2018-Feb-28 07:26N 01°18' E 104°05'0 0.0
2018-Feb-28 06:59N 01°18' E 104°05'0 0.0
2018-Feb-28 06:26N 01°18' E 104°05'0 0.0
2018-Feb-28 05:56N 01°18' E 104°05'0 0.0
2018-Feb-28 05:29N 01°18' E 104°05'0 0.1
2018-Feb-28 04:35N 01°18' E 104°05'0 0.0
2018-Feb-28 04:14N 01°18' E 104°05'0 0.1
2018-Feb-28 03:47N 01°18' E 104°05'0 0.3
2018-Feb-28 03:23N 01°18' E 104°05'0 0.1
2018-Feb-28 02:59N 01°18' E 104°05'0 0.1
2018-Feb-28 00:50N 01°18' E 104°05'0 1.2
2018-Feb-28 00:27N 01°18' E 104°05'3 5.7
2018-Feb-28 00:00N 01°17' E 104°07'1 2.6
2018-Feb-27 23:29N 01°17' E 104°08'  
2018-Feb-19 11:46N 34°27' E 137°03'512.1
2018-Feb-19 11:23N 34°31' E 137°02'410.3
2018-Feb-19 11:00N 34°34' E 136°59'612.8
2018-Feb-19 10:31N 34°38' E 136°53'612.7
2018-Feb-19 10:01N 34°43' E 136°48'612.9
2018-Feb-19 09:30N 34°49' E 136°45'612.9
2018-Feb-19 09:00N 34°55' E 136°46'510.7
2018-Feb-19 08:30N 34°60' E 136°49'3 6.4
2018-Feb-19 08:00N 35°02' E 136°52'0 0.1
2018-Feb-19 07:28N 35°02' E 136°52'0 0.0
2018-Feb-19 06:58N 35°02' E 136°52'0 0.0
2018-Feb-19 06:28N 35°02' E 136°52'0 0.0
2018-Feb-19 05:58N 35°02' E 136°52'0 0.0
2018-Feb-19 05:28N 35°02' E 136°52'0 0.0
2018-Feb-19 04:58N 35°02' E 136°52'0 0.0
2018-Feb-19 04:28N 35°02' E 136°52'0 0.0
2018-Feb-19 03:58N 35°02' E 136°52'0 0.0
2018-Feb-19 03:28N 35°02' E 136°52'0 0.0
2018-Feb-19 02:55N 35°02' E 136°52'0 0.0
2018-Feb-19 02:28N 35°02' E 136°52'0 0.0
2018-Feb-19 01:58N 35°02' E 136°52'0 0.0
2018-Feb-19 01:28N 35°02' E 136°52'0 0.0
2018-Feb-19 00:58N 35°02' E 136°52'0 0.0
2018-Feb-19 00:28N 35°02' E 136°52'0 0.0
2018-Feb-18 23:58N 35°02' E 136°52'0 0.0
2018-Feb-18 23:28N 35°02' E 136°52'0 0.0
2018-Feb-18 22:58N 35°02' E 136°52'0 0.0
2018-Feb-18 22:25N 35°02' E 136°52'0 0.0
2018-Feb-18 21:58N 35°02' E 136°52'  
Track history (hours):
 
Tides and Currents Weather Stations Pressure Air Temp Water Temp Dewpoint Dewpoint Depression Visibility Wind Speed Wind Dir Waves Ship Positions

Maple Galaxy

Last reported at 2018-Feb-28 21:42 UTC. Time now 2018-Jun-20 21:11 UTC.
Position N 01°18' E 103°20'.
Warning: this ship's position is months out of date.

Length 292 m; draft 11 m.

Type: Cargo ship. MMSI: 374498000.

Date/timePositionNaut miles runAvg speedWind from/ knotsBaromVisibWave heightAir tempDewpointWater temp
2018-Feb-28 21:42N 01°18' E 103°20'315.0
2018-Feb-28 21:29N 01°16' E 103°23'714.5
2018-Feb-28 20:59N 01°14' E 103°30'714.2
2018-Feb-28 20:30N 01°12' E 103°36'713.5
2018-Feb-28 19:59N 01°09' E 103°43'612.7
2018-Feb-28 19:30N 01°11' E 103°49'713.5
2018-Feb-28 19:00N 01°14' E 103°54'611.9
2018-Feb-28 18:30N 01°16' E 104°00'510.0
2018-Feb-28 18:00N 01°17' E 104°05'1 0.4
2018-Feb-28 15:17N 01°18' E 104°05'0 0.0
2018-Feb-28 14:47N 01°18' E 104°05'0 0.0
2018-Feb-28 12:02N 01°18' E 104°05'0 0.6
2018-Feb-28 11:56N 01°18' E 104°05'0 0.0
2018-Feb-28 11:20N 01°18' E 104°05'0 0.2
2018-Feb-28 08:44N 01°18' E 104°05'0 0.0
2018-Feb-28 08:29N 01°18' E 104°05'0 0.0
2018-Feb-28 07:59N 01°18' E 104°05'0 0.0
2018-Feb-28 07:26N 01°18' E 104°05'0 0.0
2018-Feb-28 06:59N 01°18' E 104°05'0 0.0
2018-Feb-28 06:26N 01°18' E 104°05'0 0.0
2018-Feb-28 05:56N 01°18' E 104°05'0 0.0
2018-Feb-28 05:29N 01°18' E 104°05'0 0.1
2018-Feb-28 04:35N 01°18' E 104°05'0 0.0
2018-Feb-28 04:14N 01°18' E 104°05'0 0.1
2018-Feb-28 03:47N 01°18' E 104°05'0 0.3
2018-Feb-28 03:23N 01°18' E 104°05'0 0.1
2018-Feb-28 02:59N 01°18' E 104°05'0 0.1
2018-Feb-28 00:50N 01°18' E 104°05'0 1.2
2018-Feb-28 00:27N 01°18' E 104°05'3 5.7
2018-Feb-28 00:00N 01°17' E 104°07'1 2.6
2018-Feb-27 23:29N 01°17' E 104°08'  
2018-Feb-19 11:46N 34°27' E 137°03'512.1
2018-Feb-19 11:23N 34°31' E 137°02'410.3
2018-Feb-19 11:00N 34°34' E 136°59'612.8
2018-Feb-19 10:31N 34°38' E 136°53'612.7
2018-Feb-19 10:01N 34°43' E 136°48'612.9
2018-Feb-19 09:30N 34°49' E 136°45'612.9
2018-Feb-19 09:00N 34°55' E 136°46'510.7
2018-Feb-19 08:30N 34°60' E 136°49'3 6.4
2018-Feb-19 08:00N 35°02' E 136°52'0 0.1
2018-Feb-19 07:28N 35°02' E 136°52'0 0.0
2018-Feb-19 06:58N 35°02' E 136°52'0 0.0
2018-Feb-19 06:28N 35°02' E 136°52'0 0.0
2018-Feb-19 05:58N 35°02' E 136°52'0 0.0
2018-Feb-19 05:28N 35°02' E 136°52'0 0.0
2018-Feb-19 04:58N 35°02' E 136°52'0 0.0
2018-Feb-19 04:28N 35°02' E 136°52'0 0.0
2018-Feb-19 03:58N 35°02' E 136°52'0 0.0
2018-Feb-19 03:28N 35°02' E 136°52'0 0.0
2018-Feb-19 02:55N 35°02' E 136°52'0 0.0
2018-Feb-19 02:28N 35°02' E 136°52'0 0.0
2018-Feb-19 01:58N 35°02' E 136°52'0 0.0
2018-Feb-19 01:28N 35°02' E 136°52'0 0.0
2018-Feb-19 00:58N 35°02' E 136°52'0 0.0
2018-Feb-19 00:28N 35°02' E 136°52'0 0.0
2018-Feb-18 23:58N 35°02' E 136°52'0 0.0
2018-Feb-18 23:28N 35°02' E 136°52'0 0.0
2018-Feb-18 22:58N 35°02' E 136°52'0 0.0
2018-Feb-18 22:25N 35°02' E 136°52'0 0.0
2018-Feb-18 21:58N 35°02' E 136°52'  

Dump ship's entire track history